createdAt,value
2022-08-19T00:01:00.239Z,14.47
2022-08-19T00:03:30.890Z,14.73
2022-08-19T00:06:00.271Z,15.60
2022-08-19T00:08:29.644Z,15.40
2022-08-19T00:10:58.987Z,14.30
2022-08-19T00:13:29.590Z,15.27
2022-08-19T00:15:59.616Z,14.27
2022-08-19T00:18:30.707Z,14.45
2022-08-19T00:21:00.486Z,15.55
2022-08-19T00:23:29.778Z,15.70
2022-08-19T00:25:58.834Z,13.93
2022-08-19T00:28:27.991Z,13.87
2022-08-19T00:30:57.062Z,15.13
2022-08-19T00:33:26.327Z,13.77
2022-08-19T00:36:01.503Z,15.00
2022-08-19T00:38:37.386Z,14.73
2022-08-19T00:41:07.890Z,14.47
2022-08-19T00:43:39.723Z,13.83
2022-08-19T00:46:09.077Z,15.60
2022-08-19T00:48:38.419Z,14.57
2022-08-19T00:51:09.403Z,14.90
2022-08-19T00:53:38.605Z,14.37
2022-08-19T00:56:09.741Z,14.60
2022-08-19T00:58:39.337Z,14.90
2022-08-19T01:01:08.847Z,15.37
2022-08-19T01:03:56.482Z,15.63
2022-08-19T01:06:29.034Z,15.13
2022-08-19T01:08:58.201Z,14.77
2022-08-19T01:11:27.733Z,15.90
2022-08-19T01:13:57.520Z,15.00
2022-08-19T01:16:29.357Z,15.00
2022-08-19T01:18:58.550Z,15.90
2022-08-19T01:21:36.796Z,15.00
2022-08-19T01:24:07.691Z,15.87
2022-08-19T01:26:42.778Z,15.70
2022-08-19T01:29:13.742Z,15.50
2022-08-19T01:31:44.138Z,16.07
2022-08-19T01:34:13.404Z,17.00
2022-08-19T01:36:48.288Z,16.33
2022-08-19T01:39:22.450Z,15.17
2022-08-19T01:41:52.260Z,15.87
2022-08-19T01:44:24.946Z,15.40
2022-08-19T01:46:54.287Z,17.10
2022-08-19T01:49:26.237Z,15.63
2022-08-19T01:51:56.466Z,15.77
2022-08-19T01:54:28.127Z,17.03
2022-08-19T01:57:04.027Z,15.97
2022-08-19T01:59:34.787Z,17.20
2022-08-19T02:02:04.354Z,17.17
2022-08-19T02:04:33.406Z,16.23
2022-08-19T02:07:02.644Z,17.00
2022-08-19T02:09:34.071Z,15.97
2022-08-19T02:12:03.246Z,16.20
2022-08-19T02:14:32.696Z,18.17
2022-08-19T02:17:02.024Z,17.47
2022-08-19T02:19:33.370Z,20.63
2022-08-19T02:22:02.985Z,19.47
2022-08-19T02:24:33.535Z,20.13
2022-08-19T02:27:02.667Z,19.83
2022-08-19T02:29:31.704Z,18.95
2022-08-19T02:32:00.810Z,18.67
2022-08-19T02:34:30.047Z,20.00
2022-08-19T02:37:03.481Z,19.33
2022-08-19T02:39:33.485Z,19.27
2022-08-19T02:42:02.810Z,19.67
2022-08-19T02:44:32.145Z,18.85
2022-08-19T02:47:01.391Z,20.73
2022-08-19T02:49:34.690Z,19.55
2022-08-19T02:52:05.123Z,20.83
2022-08-19T02:54:35.625Z,19.92
2022-08-19T02:57:05.393Z,22.05
2022-08-19T02:59:35.476Z,22.42
2022-08-19T03:02:05.326Z,20.20
2022-08-19T03:04:34.457Z,20.83
2022-08-19T03:07:10.935Z,20.70
2022-08-19T03:09:43.322Z,21.92
2022-08-19T03:12:12.601Z,21.05
2022-08-19T03:14:42.096Z,23.35
2022-08-19T03:17:11.539Z,23.77
2022-08-19T03:19:40.728Z,22.27
2022-08-19T03:22:09.871Z,22.25
2022-08-19T03:24:44.353Z,22.10
2022-08-19T03:27:13.382Z,21.42
2022-08-19T03:29:43.823Z,21.70
2022-08-19T03:32:29.686Z,23.20
2022-08-19T03:35:03.250Z,24.03
2022-08-19T03:37:32.468Z,23.50
2022-08-19T03:40:30.329Z,21.10
2022-08-19T03:42:59.738Z,21.65
2022-08-19T03:45:29.084Z,22.42
2022-08-19T03:47:58.609Z,21.60
2022-08-19T03:50:27.783Z,22.20
2022-08-19T03:52:56.963Z,22.65
2022-08-19T03:55:27.461Z,22.67
2022-08-19T03:57:59.206Z,21.35
2022-08-19T04:00:28.618Z,22.90
2022-08-19T04:03:00.311Z,22.95
2022-08-19T04:05:31.588Z,21.75
2022-08-19T04:08:01.593Z,23.73
2022-08-19T04:10:32.322Z,23.48
2022-08-19T04:13:01.491Z,21.63
2022-08-19T04:15:36.661Z,21.65
2022-08-19T04:18:07.103Z,22.52
2022-08-19T04:20:42.809Z,25.10
2022-08-19T04:23:12.785Z,22.50
2022-08-19T04:25:46.847Z,24.85
2022-08-19T04:28:16.340Z,22.60
2022-08-19T04:30:49.613Z,22.37
2022-08-19T04:33:50.689Z,23.90
2022-08-19T04:36:47.478Z,25.13
2022-08-19T04:39:20.306Z,23.83
2022-08-19T04:42:17.947Z,24.80
2022-08-19T04:44:53.103Z,25.13
2022-08-19T04:47:47.616Z,24.60
2022-08-19T04:50:16.758Z,25.27
2022-08-19T04:52:48.204Z,24.92
2022-08-19T04:55:17.594Z,26.80
2022-08-19T04:57:48.066Z,24.38
2022-08-19T05:00:17.482Z,24.27
2022-08-19T05:02:46.594Z,24.48
2022-08-19T05:05:15.739Z,23.83
2022-08-19T05:07:44.782Z,23.77
2022-08-19T05:10:14.260Z,24.60
2022-08-19T05:12:43.377Z,24.38
2022-08-19T05:15:14.348Z,23.05
2022-08-19T05:18:04.151Z,24.60
2022-08-19T05:20:50.780Z,24.52
2022-08-19T05:23:22.744Z,23.30
2022-08-19T05:25:53.062Z,27.17
2022-08-19T05:28:22.844Z,22.55
2022-08-19T05:30:53.354Z,27.52
2022-08-19T05:33:22.532Z,24.35
2022-08-19T05:35:51.803Z,22.08
2022-08-19T05:38:23.481Z,25.27
2022-08-19T05:40:52.730Z,23.52
2022-08-19T05:43:21.892Z,24.90
2022-08-19T05:45:52.741Z,24.70
2022-08-19T05:48:21.882Z,23.00
2022-08-19T05:50:51.823Z,24.05
2022-08-19T05:53:21.422Z,25.67
2022-08-19T05:55:50.590Z,24.52
2022-08-19T05:58:19.739Z,24.52
2022-08-19T06:00:55.863Z,24.13
2022-08-19T06:03:25.087Z,25.52
2022-08-19T06:05:55.234Z,24.65
2022-08-19T06:08:34.537Z,23.25
2022-08-19T06:11:21.043Z,24.35
2022-08-19T06:13:59.462Z,26.67
2022-08-19T06:16:36.141Z,24.02
2022-08-19T06:19:09.044Z,25.40
2022-08-19T06:21:41.309Z,25.08
2022-08-19T06:24:16.920Z,24.75
2022-08-19T06:29:24.034Z,24.55
2022-08-19T06:31:57.384Z,23.90
2022-08-19T06:34:28.281Z,23.95
2022-08-19T06:37:02.073Z,26.02
2022-08-19T06:39:33.908Z,27.35
2022-08-19T06:42:09.452Z,24.65
2022-08-19T06:44:43.809Z,26.23
2022-08-19T06:47:23.439Z,26.42
2022-08-19T06:50:01.512Z,27.20
2022-08-19T06:52:34.842Z,25.70
2022-08-19T06:55:07.677Z,26.27
2022-08-19T06:57:37.094Z,25.75
2022-08-19T07:00:13.055Z,27.70
2022-08-19T07:02:49.569Z,25.20
2022-08-19T07:05:24.924Z,25.65
2022-08-19T07:07:54.062Z,24.92
2022-08-19T07:10:27.496Z,26.52
2022-08-19T07:12:56.725Z,26.75
2022-08-19T07:15:25.918Z,25.50
2022-08-19T07:17:56.550Z,25.95
2022-08-19T07:20:28.492Z,24.60
2022-08-19T07:22:58.073Z,24.00
2022-08-19T07:25:32.192Z,25.60
2022-08-19T07:28:01.834Z,23.70
2022-08-19T07:30:31.568Z,24.40
2022-08-19T07:33:03.438Z,24.55
2022-08-19T07:35:34.430Z,25.85
2022-08-19T07:38:04.643Z,23.58
2022-08-19T07:40:33.894Z,21.85
2022-08-19T07:43:03.030Z,23.75
2022-08-19T07:45:33.163Z,23.88
2022-08-19T07:48:05.292Z,22.20
2022-08-19T07:50:34.705Z,21.70
2022-08-19T07:53:03.844Z,24.17
2022-08-19T07:55:41.740Z,23.73
2022-08-19T07:58:15.485Z,22.65
2022-08-19T08:00:47.550Z,23.40
2022-08-19T08:03:20.637Z,23.35
2022-08-19T08:06:07.348Z,23.50
2022-08-19T08:08:54.212Z,23.33
2022-08-19T08:11:24.032Z,20.65
2022-08-19T08:14:00.487Z,23.17
2022-08-19T08:16:39.766Z,21.00
2022-08-19T08:19:25.478Z,21.58
2022-08-19T08:21:57.366Z,22.40
2022-08-19T08:24:28.256Z,21.52
2022-08-19T08:26:59.774Z,20.48
2022-08-19T08:29:35.120Z,20.20
2022-08-19T08:32:14.872Z,22.60
2022-08-19T08:34:47.447Z,21.63
2022-08-19T08:37:23.123Z,21.60
2022-08-19T08:39:52.261Z,23.02
2022-08-19T08:42:27.676Z,22.80
2022-08-19T08:45:02.209Z,23.33
2022-08-19T08:47:38.529Z,21.60
2022-08-19T08:50:20.341Z,24.27
2022-08-19T08:52:53.961Z,21.02
2022-08-19T08:55:36.648Z,22.17
2022-08-19T08:58:10.100Z,21.35
2022-08-19T09:00:42.928Z,20.45
2022-08-19T09:03:20.778Z,21.95
2022-08-19T09:06:02.490Z,22.47
2022-08-19T09:08:56.953Z,22.50
2022-08-19T09:11:44.353Z,21.15
2022-08-19T09:14:51.044Z,19.90
2022-08-19T09:17:31.767Z,21.83
2022-08-19T09:20:09.161Z,20.55
2022-08-19T09:22:44.967Z,20.27
2022-08-19T09:25:17.953Z,21.48
2022-08-19T09:28:02.902Z,21.45
2022-08-19T09:30:41.230Z,21.23
2022-08-19T09:33:10.776Z,19.83
2022-08-19T09:35:49.942Z,19.92
2022-08-19T09:38:24.368Z,19.73
2022-08-19T09:40:53.690Z,19.55
2022-08-19T09:43:33.001Z,17.95
2022-08-19T09:46:03.904Z,18.93
2022-08-19T09:48:33.597Z,17.37
2022-08-19T09:51:07.693Z,17.58
2022-08-19T09:53:42.686Z,17.75
2022-08-19T09:56:13.454Z,18.63
2022-08-19T09:58:42.942Z,17.13
2022-08-19T10:01:18.485Z,18.30
2022-08-19T10:03:51.760Z,18.20
2022-08-19T10:06:21.172Z,17.80
2022-08-19T10:09:12.936Z,16.38
2022-08-19T10:11:52.576Z,17.42
2022-08-19T10:14:24.335Z,17.85
2022-08-19T10:16:53.716Z,17.88
2022-08-19T10:19:25.479Z,16.23
2022-08-19T10:22:00.495Z,15.40
2022-08-19T10:24:31.731Z,14.32
2022-08-19T10:27:04.348Z,16.98
2022-08-19T10:29:35.364Z,16.08
2022-08-19T10:32:09.556Z,15.40
2022-08-19T10:34:48.186Z,14.10
2022-08-19T10:37:28.828Z,15.70
2022-08-19T10:40:03.088Z,15.70
2022-08-19T10:42:33.305Z,15.80
2022-08-19T10:45:02.853Z,14.98
2022-08-19T10:47:34.413Z,14.82
2022-08-19T10:50:21.341Z,14.03
2022-08-19T10:52:57.754Z,12.67
2022-08-19T10:55:45.797Z,12.87
2022-08-19T10:58:17.397Z,12.60
2022-08-19T11:00:54.768Z,11.87
2022-08-19T11:03:24.575Z,11.73
2022-08-19T11:06:01.256Z,12.23
2022-08-19T11:08:31.815Z,11.70
2022-08-19T11:11:04.461Z,12.00
2022-08-19T11:13:38.303Z,10.70
2022-08-19T11:16:14.361Z,11.40
2022-08-19T11:18:47.003Z,10.77
2022-08-19T11:21:21.119Z,11.57
2022-08-19T11:23:54.563Z,11.03
2022-08-19T11:26:28.020Z,11.43
2022-08-19T11:28:59.796Z,11.63
2022-08-19T11:31:32.787Z,11.43
2022-08-19T11:34:05.689Z,11.80
2022-08-19T11:36:35.359Z,10.60
2022-08-19T11:39:06.221Z,10.37
2022-08-19T11:41:37.127Z,11.60
2022-08-19T11:44:07.606Z,11.30
2022-08-19T11:46:39.067Z,11.50
2022-08-19T11:49:13.793Z,11.33
2022-08-19T11:51:44.899Z,12.07
2022-08-19T11:54:16.890Z,10.80
2022-08-19T11:56:49.949Z,11.10
2022-08-19T11:59:19.208Z,12.33
2022-08-19T12:01:48.381Z,12.20
2022-08-19T12:04:18.587Z,11.40
2022-08-19T12:06:50.939Z,11.90
2022-08-19T12:09:20.100Z,13.20
2022-08-19T12:11:51.833Z,12.80
2022-08-19T12:14:20.987Z,12.90
2022-08-19T12:16:52.715Z,13.00
2022-08-19T12:19:22.359Z,11.20
2022-08-19T12:21:53.966Z,12.50
2022-08-19T12:24:24.384Z,12.07
2022-08-19T12:26:56.330Z,12.83
2022-08-19T12:29:30.628Z,13.03
2022-08-19T12:32:02.232Z,12.90
2022-08-19T12:34:34.270Z,11.83
2022-08-19T12:37:06.824Z,11.73
2022-08-19T12:39:43.055Z,11.60
2022-08-19T12:42:15.872Z,9.70
2022-08-19T12:44:46.270Z,10.80
2022-08-19T12:47:16.069Z,10.00
2022-08-19T12:49:53.123Z,10.37
2022-08-19T12:52:28.085Z,11.73
2022-08-19T12:54:58.869Z,10.90
2022-08-19T12:57:33.484Z,11.20
2022-08-19T13:00:10.472Z,11.77
2022-08-19T13:02:41.522Z,10.80
2022-08-19T13:05:14.993Z,11.37
2022-08-19T13:07:45.760Z,9.63
2022-08-19T13:10:18.700Z,9.60
2022-08-19T13:12:51.959Z,9.50
2022-08-19T13:15:24.346Z,7.70
2022-08-19T13:17:56.597Z,11.47
2022-08-19T13:20:27.355Z,10.97
2022-08-19T13:22:58.120Z,15.13
2022-08-19T13:25:27.659Z,16.33
2022-08-19T13:27:58.099Z,14.80
2022-08-19T13:30:45.129Z,17.23
2022-08-19T13:33:16.107Z,17.10
2022-08-19T13:35:50.114Z,18.70
2022-08-19T13:38:22.696Z,20.60
2022-08-19T13:40:54.966Z,20.93
2022-08-19T13:43:28.523Z,22.67
2022-08-19T13:45:57.923Z,26.00
2022-08-19T13:48:29.466Z,23.70
2022-08-19T13:50:59.675Z,26.17
2022-08-19T13:53:28.810Z,27.90
2022-08-19T13:55:58.267Z,27.27
2022-08-19T13:58:28.982Z,28.07
2022-08-19T14:01:00.139Z,26.20
2022-08-19T14:03:33.409Z,25.93
2022-08-19T14:06:03.591Z,25.90
2022-08-19T14:08:33.272Z,24.70
2022-08-19T14:11:06.593Z,27.37
2022-08-19T14:13:38.073Z,25.13
2022-08-19T14:16:13.969Z,25.40
2022-08-19T14:18:43.804Z,25.87
2022-08-19T14:21:18.606Z,24.50
2022-08-19T14:23:47.837Z,22.07
2022-08-19T14:26:20.028Z,23.63
2022-08-19T14:28:51.673Z,25.07
2022-08-19T14:31:26.791Z,24.27
2022-08-19T14:34:00.556Z,23.70
2022-08-19T14:36:29.837Z,26.10
2022-08-19T14:38:59.768Z,27.30
2022-08-19T14:41:31.454Z,25.67
2022-08-19T14:44:02.518Z,25.23
2022-08-19T14:46:32.170Z,26.87
2022-08-19T14:49:01.665Z,24.87
2022-08-19T14:51:38.718Z,24.63
2022-08-19T14:54:08.256Z,22.75
2022-08-19T14:56:37.404Z,23.60
2022-08-19T14:59:07.947Z,23.50
2022-08-19T15:01:37.249Z,21.90
2022-08-19T15:04:06.795Z,23.27
2022-08-19T15:06:36.439Z,22.20
2022-08-19T15:09:06.423Z,22.17
2022-08-19T15:11:38.302Z,22.47
2022-08-19T15:14:08.780Z,22.67
2022-08-19T15:16:38.921Z,25.37
2022-08-19T15:19:08.037Z,25.20
2022-08-19T15:21:37.670Z,25.77
2022-08-19T15:24:07.648Z,25.80
2022-08-19T15:26:37.615Z,24.40
2022-08-19T15:29:09.249Z,24.83
2022-08-19T15:31:38.919Z,23.43
2022-08-19T15:34:09.114Z,23.33
2022-08-19T15:36:39.144Z,25.10
2022-08-19T15:39:10.177Z,23.47
2022-08-19T15:41:41.049Z,25.10
2022-08-19T15:44:17.334Z,23.30
2022-08-19T15:46:48.965Z,23.27
2022-08-19T15:49:20.632Z,24.10
2022-08-19T15:51:52.996Z,21.90
2022-08-19T15:54:23.454Z,21.73
2022-08-19T15:57:11.181Z,21.80
2022-08-19T16:00:00.062Z,22.43
2022-08-19T16:02:53.756Z,22.00
2022-08-19T16:05:44.692Z,23.10
2022-08-19T16:08:15.423Z,24.10
2022-08-19T16:10:44.594Z,24.57
2022-08-19T16:13:13.779Z,25.30
2022-08-19T16:15:44.911Z,23.30
2022-08-19T16:18:14.128Z,23.23
2022-08-19T16:20:43.862Z,22.07
2022-08-19T16:23:13.106Z,21.60
2022-08-19T16:25:44.724Z,21.57
2022-08-19T16:28:15.518Z,22.33
2022-08-19T16:30:48.473Z,22.57
2022-08-19T16:33:22.967Z,21.50
2022-08-19T16:36:00.138Z,21.50
2022-08-19T16:38:30.864Z,21.43
2022-08-19T16:41:01.494Z,20.50
2022-08-19T16:43:32.058Z,21.00
2022-08-19T16:46:02.685Z,19.63
2022-08-19T16:48:32.956Z,19.33
2022-08-19T16:51:09.341Z,21.60
2022-08-19T16:53:41.794Z,21.53
2022-08-19T16:56:11.544Z,21.60
2022-08-19T16:58:41.344Z,21.37
2022-08-19T17:01:16.344Z,17.97
2022-08-19T17:03:52.926Z,21.10
2022-08-19T17:06:32.636Z,19.57
2022-08-19T17:09:04.114Z,21.23
2022-08-19T17:11:33.866Z,21.80
2022-08-19T17:14:03.910Z,21.43
2022-08-19T17:16:37.321Z,21.00
2022-08-19T17:19:08.892Z,21.57
2022-08-19T17:21:40.737Z,21.43
2022-08-19T17:24:10.250Z,22.63
2022-08-19T17:26:41.459Z,23.23
2022-08-19T17:29:10.570Z,22.77
2022-08-19T17:31:41.069Z,23.35
2022-08-19T17:34:10.413Z,21.60
2022-08-19T17:36:39.548Z,23.07
2022-08-19T17:39:08.740Z,19.60
2022-08-19T17:41:37.871Z,19.77
2022-08-19T17:44:07.175Z,21.98
2022-08-19T17:46:41.015Z,21.07
2022-08-19T17:49:10.185Z,19.77
2022-08-19T17:51:49.551Z,21.15
2022-08-19T17:54:20.964Z,21.70
2022-08-19T17:56:50.151Z,20.10
2022-08-19T17:59:19.578Z,21.70
2022-08-19T18:01:54.451Z,20.33
2022-08-19T18:04:25.772Z,20.97
2022-08-19T18:06:56.091Z,21.90
2022-08-19T18:09:30.107Z,22.07
2022-08-19T18:12:13.083Z,20.37
2022-08-19T18:14:43.127Z,19.70
2022-08-19T18:17:19.144Z,20.00
2022-08-19T18:19:49.168Z,19.27
2022-08-19T18:22:30.583Z,19.83
2022-08-19T18:25:07.507Z,20.67
2022-08-19T18:27:43.325Z,20.23
2022-08-19T18:30:15.544Z,19.30
2022-08-19T18:32:49.661Z,19.57
2022-08-19T18:35:30.041Z,19.77
2022-08-19T18:38:01.772Z,20.90
2022-08-19T18:40:54.700Z,20.47
2022-08-19T18:43:47.511Z,20.17
2022-08-19T18:46:36.879Z,20.20
2022-08-19T18:49:11.207Z,18.90
2022-08-19T18:51:40.417Z,18.50
2022-08-19T18:54:11.772Z,18.15
2022-08-19T18:56:48.104Z,19.70
2022-08-19T18:59:29.606Z,20.33
2022-08-19T19:02:11.381Z,18.40
2022-08-19T19:04:47.157Z,19.63
2022-08-19T19:07:20.672Z,20.50
2022-08-19T19:09:51.381Z,20.00
2022-08-19T19:12:22.437Z,20.10
2022-08-19T19:14:53.018Z,17.37
2022-08-19T19:17:28.571Z,19.57
2022-08-19T19:20:00.656Z,18.97
2022-08-19T19:22:34.078Z,18.40
2022-08-19T19:25:03.650Z,19.52
2022-08-19T19:27:33.598Z,19.90
2022-08-19T19:30:02.835Z,18.67
2022-08-19T19:32:41.139Z,19.30
2022-08-19T19:35:24.722Z,18.98
2022-08-19T19:37:57.278Z,18.33
2022-08-19T19:40:27.962Z,19.38
2022-08-19T19:42:57.319Z,17.93
2022-08-19T19:45:31.602Z,20.50
2022-08-19T19:48:00.919Z,18.70
2022-08-19T19:50:36.860Z,17.80
2022-08-19T19:53:06.344Z,17.40
2022-08-19T19:55:36.343Z,17.27
2022-08-19T19:58:06.971Z,19.27
2022-08-19T20:00:37.176Z,17.67
2022-08-19T20:04:20.472Z,18.37
2022-08-19T20:06:51.015Z,18.70
2022-08-19T20:09:39.125Z,17.70
2022-08-19T20:12:19.384Z,17.42
2022-08-19T20:14:48.778Z,18.13
2022-08-19T20:17:23.194Z,18.50
2022-08-19T20:19:58.063Z,20.10
2022-08-19T20:22:28.636Z,20.10
2022-08-19T20:25:03.349Z,20.73
2022-08-19T20:27:39.935Z,19.47
2022-08-19T20:31:25.921Z,18.40
2022-08-19T20:34:04.368Z,17.63
2022-08-19T20:36:42.764Z,18.40
2022-08-19T20:39:14.160Z,18.70
2022-08-19T20:42:03.393Z,18.30
2022-08-19T20:44:32.586Z,18.17
2022-08-19T20:47:03.974Z,17.00
2022-08-19T20:49:35.246Z,14.93
2022-08-19T20:52:06.998Z,12.97
2022-08-19T20:54:37.583Z,13.30
2022-08-19T20:57:07.284Z,12.50
2022-08-19T20:59:39.475Z,11.17
2022-08-19T21:02:16.421Z,11.27
2022-08-19T21:04:45.641Z,9.70
2022-08-19T21:07:17.473Z,6.85
2022-08-19T21:09:51.082Z,6.53
2022-08-19T21:12:20.526Z,4.20
2022-08-19T21:14:51.607Z,5.10
2022-08-19T21:17:21.282Z,4.38
2022-08-19T21:19:50.680Z,4.25
2022-08-19T21:22:22.389Z,3.88
2022-08-19T21:24:56.557Z,4.67
2022-08-19T21:27:28.273Z,4.30
2022-08-19T21:29:57.594Z,4.63
2022-08-19T21:32:26.931Z,3.77
2022-08-19T21:34:57.634Z,4.30
2022-08-19T21:37:33.480Z,3.47
2022-08-19T21:40:05.326Z,3.43
2022-08-19T21:42:42.415Z,3.27
2022-08-19T21:45:14.076Z,3.27
2022-08-19T21:47:43.309Z,3.20
2022-08-19T21:50:14.302Z,3.30
2022-08-19T21:52:49.017Z,3.13
2022-08-19T21:55:20.678Z,3.30
2022-08-19T21:58:02.762Z,3.17
2022-08-19T22:01:36.750Z,2.67
2022-08-19T22:04:08.175Z,2.63
2022-08-19T22:06:39.053Z,3.00
2022-08-19T22:09:08.421Z,2.47
2022-08-19T22:12:51.688Z,2.67
2022-08-19T22:15:22.158Z,2.85
2022-08-19T22:22:33.353Z,2.80
2022-08-19T22:25:59.761Z,2.67
2022-08-19T22:28:32.462Z,2.50
2022-08-19T22:31:18.896Z,2.80
2022-08-19T22:34:34.415Z,3.33
2022-08-19T22:37:11.491Z,3.40
2022-08-19T22:39:46.423Z,3.30
2022-08-19T22:42:42.984Z,2.67
2022-08-19T22:45:17.909Z,2.60
2022-08-19T22:47:47.174Z,2.73
2022-08-19T22:50:19.798Z,2.83
2022-08-19T22:52:51.936Z,3.05
2022-08-19T22:55:23.958Z,2.60
2022-08-19T22:57:56.962Z,2.20
2022-08-19T23:00:35.086Z,2.72
2022-08-19T23:03:11.949Z,2.65
2022-08-19T23:05:41.508Z,2.40
2022-08-19T23:08:13.287Z,2.80
2022-08-19T23:10:49.941Z,2.33
2022-08-19T23:13:19.655Z,2.60
2022-08-19T23:15:50.975Z,2.80
2022-08-19T23:18:22.172Z,2.70
2022-08-19T23:20:53.775Z,2.33
2022-08-19T23:23:25.395Z,2.72
2022-08-19T23:25:58.349Z,2.60
2022-08-19T23:28:47.857Z,2.20
2022-08-19T23:31:18.344Z,2.80
2022-08-19T23:33:51.675Z,2.60
2022-08-19T23:36:24.213Z,2.65
2022-08-19T23:38:55.305Z,2.67
2022-08-19T23:41:27.131Z,2.28
2022-08-19T23:43:59.639Z,2.40
2022-08-19T23:46:31.580Z,2.17
2022-08-19T23:49:11.429Z,2.15
2022-08-19T23:51:40.611Z,2.57
2022-08-19T23:54:15.806Z,2.33
2022-08-19T23:56:53.060Z,2.28
2022-08-19T23:59:43.979Z,1.87
